Time;durP1;ratioP1;P1;durP2;ratioP2;P2;SDS_P1;SDS_P2;PMS_P1;PMS_P2;Temp;Humidity;BMP_temperature;BMP_pressure;BME280_temperature;BME280_humidity;BME280_pressure;Samples;Min_cycle;Max_cycle;Signal;HPM_P1;HPM_P2
2022/04/27 00:00:13;;;;;;;0.32;0.13;;;;;;;;;;4179512;28;20053;-37
2022/04/27 00:02:14;;;;;;;0.47;0.13;;;;;;;;;;4179148;28;20076;-37
2022/04/27 00:04:15;;;;;;;0.20;0.20;;;;;;;;;;4177355;28;20057;-37
2022/04/27 00:06:16;;;;;;;2.13;0.10;;;;;;;;;;4178041;28;20056;-37
2022/04/27 00:08:18;;;;;;;1.08;0.30;;;;;;;;;;4177998;28;20045;-38
2022/04/27 00:10:19;;;;;;;0.60;0.20;;;;;;;;;;4179042;28;20481;-37
2022/04/27 00:12:21;;;;;;;0.20;0.10;;;;;;;;;;4179138;28;20515;-37
2022/04/27 00:14:23;;;;;;;0.20;0.10;;;;;;;;;;4177879;28;20127;-37
2022/04/27 00:16:25;;;;;;;0.20;0.10;;;;;;;;;;4179241;28;20110;-37
2022/04/27 00:18:26;;;;;;;0.13;0.10;;;;;;;;;;4179929;28;20065;-37
2022/04/27 00:20:27;;;;;;;0.45;0.38;;;;;;;;;;4182247;28;20049;-37
2022/04/27 00:22:29;;;;;;;0.20;0.10;;;;;;;;;;4182312;28;20053;-37
2022/04/27 00:24:30;;;;;;;0.20;0.20;;;;;;;;;;4182362;28;20079;-37
2022/04/27 00:26:31;;;;;;;1.05;0.30;;;;;;;;;;4182294;28;20412;-38
2022/04/27 00:28:33;;;;;;;0.22;0.20;;;;;;;;;;4182391;28;20102;-37
2022/04/27 00:30:34;;;;;;;0.45;0.20;;;;;;;;;;4182312;28;20056;-37
2022/04/27 00:32:35;;;;;;;0.35;0.20;;;;;;;;;;4181402;28;20558;-37
2022/04/27 00:34:37;;;;;;;0.63;0.20;;;;;;;;;;4182398;28;20119;-37
2022/04/27 00:36:38;;;;;;;0.22;0.15;;;;;;;;;;4181980;28;20143;-37
2022/04/27 00:38:39;;;;;;;0.20;0.10;;;;;;;;;;4180478;28;20102;-37
2022/04/27 00:40:40;;;;;;;0.38;0.20;;;;;;;;;;4182332;28;20103;-37
2022/04/27 00:42:41;;;;;;;0.25;0.10;;;;;;;;;;4181789;28;20049;-38
2022/04/27 00:44:44;;;;;;;0.43;0.20;;;;;;;;;;4182241;28;20068;-37
2022/04/27 00:46:45;;;;;;;0.80;0.25;;;;;;;;;;4181785;28;20052;-37
2022/04/27 00:48:46;;;;;;;1.08;0.30;;;;;;;;;;4181390;28;20056;-37
2022/04/27 00:50:48;;;;;;;0.20;0.20;;;;;;;;;;4181730;28;20103;-37
2022/04/27 00:52:49;;;;;;;0.75;0.20;;;;;;;;;;4180431;28;20102;-37
2022/04/27 00:54:52;;;;;;;0.73;0.13;;;;;;;;;;4181670;28;20052;-37
2022/04/27 00:56:53;;;;;;;0.47;0.30;;;;;;;;;;4180325;28;20064;-37
2022/04/27 00:58:54;;;;;;;0.17;0.10;;;;;;;;;;4162967;28;20541;-37
2022/04/27 01:00:56;;;;;;;0.15;0.10;;;;;;;;;;4178850;28;20045;-37
2022/04/27 01:02:57;;;;;;;0.25;0.10;;;;;;;;;;4180420;28;20053;-38
2022/04/27 01:04:59;;;;;;;0.10;0.10;;;;;;;;;;4180211;28;20056;-37
2022/04/27 01:07:00;;;;;;;1.30;0.20;;;;;;;;;;4179860;28;20582;-37
2022/04/27 01:09:02;;;;;;;0.40;0.10;;;;;;;;;;4163266;28;20053;-37
2022/04/27 01:11:05;;;;;;;1.20;0.10;;;;;;;;;;4179808;28;20102;-38
2022/04/27 01:13:12;;;;;;;0.88;0.35;;;;;;;;;;4164430;28;20533;-37
2022/04/27 01:15:32;;;;;;;0.20;0.10;;;;;;;;;;4180064;28;20099;-37
2022/04/27 01:17:33;;;;;;;0.52;0.20;;;;;;;;;;4181107;28;20091;-37
2022/04/27 01:19:35;;;;;;;0.10;0.10;;;;;;;;;;4180342;28;20057;-37
2022/04/27 01:21:36;;;;;;;0.85;0.25;;;;;;;;;;4181353;28;20473;-37
2022/04/27 01:23:39;;;;;;;0.52;0.10;;;;;;;;;;4179149;28;20123;-37
2022/04/27 01:25:52;;;;;;;1.63;0.20;;;;;;;;;;4181234;28;20052;-38
2022/04/27 01:27:54;;;;;;;0.57;0.20;;;;;;;;;;4181427;28;20367;-37
2022/04/27 01:29:56;;;;;;;1.15;0.30;;;;;;;;;;4178449;28;20557;-37
2022/04/27 01:32:00;;;;;;;0.10;0.10;;;;;;;;;;4181070;28;20053;-37
2022/04/27 01:34:01;;;;;;;0.10;0.10;;;;;;;;;;4180678;28;20451;-37
2022/04/27 01:36:05;;;;;;;0.17;0.10;;;;;;;;;;4179831;28;20794;-37
2022/04/27 01:38:07;;;;;;;0.20;0.10;;;;;;;;;;4181341;28;20114;-37
2022/04/27 01:40:08;;;;;;;0.10;0.10;;;;;;;;;;4181369;28;20049;-37
2022/04/27 01:42:09;;;;;;;0.32;0.20;;;;;;;;;;4179700;28;20053;-37
2022/04/27 01:44:11;;;;;;;0.55;0.10;;;;;;;;;;4180793;28;20048;-37
2022/04/27 01:46:12;;;;;;;0.30;0.10;;;;;;;;;;4163217;28;20065;-37
2022/04/27 01:48:13;;;;;;;0.88;0.13;;;;;;;;;;4180605;28;20463;-37
2022/04/27 01:50:15;;;;;;;0.30;0.10;;;;;;;;;;4180798;28;20151;-37
2022/04/27 01:54:36;;;;;;;;;;;;;;;;;;4163722;28;20049;-37
2022/04/27 01:56:37;;;;;;;0.20;0.15;;;;;;;;;;4180861;28;20435;-37
2022/04/27 01:58:38;;;;;;;3.97;0.25;;;;;;;;;;4180590;28;20129;-37
2022/04/27 02:00:39;;;;;;;0.30;0.10;;;;;;;;;;4179786;28;20052;-37
2022/04/27 02:02:41;;;;;;;0.55;0.20;;;;;;;;;;4162267;28;20566;-37
2022/04/27 02:04:43;;;;;;;0.10;0.08;;;;;;;;;;4179484;28;20049;-38
2022/04/27 02:06:47;;;;;;;0.20;0.20;;;;;;;;;;4179456;28;20053;-37
2022/04/27 02:08:51;;;;;;;0.20;0.10;;;;;;;;;;4179162;28;20660;-37
2022/04/27 02:10:58;;;;;;;0.45;0.10;;;;;;;;;;4179304;28;20048;-37
2022/04/27 02:12:59;;;;;;;2.03;0.50;;;;;;;;;;4162797;28;20103;-37
2022/04/27 02:15:02;;;;;;;0.22;0.20;;;;;;;;;;4180459;28;20052;-37
2022/04/27 02:17:04;;;;;;;0.55;0.10;;;;;;;;;;4179283;28;20061;-37
2022/04/27 02:19:06;;;;;;;0.15;0.10;;;;;;;;;;4178653;28;20056;-37
2022/04/27 02:21:07;;;;;;;0.43;0.10;;;;;;;;;;4179193;28;20489;-37
2022/04/27 02:23:09;;;;;;;0.10;0.10;;;;;;;;;;4179255;28;20082;-37
2022/04/27 02:25:10;;;;;;;0.10;0.10;;;;;;;;;;4179035;28;20087;-37
2022/04/27 02:27:11;;;;;;;0.40;0.13;;;;;;;;;;4177064;28;20061;-37
2022/04/27 02:29:15;;;;;;;0.55;0.20;;;;;;;;;;4176852;28;20060;-37
2022/04/27 02:31:17;;;;;;;1.00;0.20;;;;;;;;;;4178135;28;20480;-37
2022/04/27 02:33:18;;;;;;;0.10;0.10;;;;;;;;;;4176853;28;20111;-37
2022/04/27 02:35:19;;;;;;;0.25;0.20;;;;;;;;;;4177350;28;20711;-37
2022/04/27 02:37:21;;;;;;;0.30;0.25;;;;;;;;;;4177017;28;20056;-37
2022/04/27 02:39:27;;;;;;;1.08;0.30;;;;;;;;;;4176549;28;20465;-38
2022/04/27 02:41:28;;;;;;;0.45;0.10;;;;;;;;;;4177906;28;20079;-37
2022/04/27 02:43:31;;;;;;;0.50;0.20;;;;;;;;;;4176750;28;20057;-37
2022/04/27 02:45:33;;;;;;;0.45;0.20;;;;;;;;;;4176871;28;20064;-37
2022/04/27 02:47:35;;;;;;;0.15;0.10;;;;;;;;;;4176181;28;20057;-37
2022/04/27 02:51:57;;;;;;;0.35;0.15;;;;;;;;;;4176431;28;20057;-37
2022/04/27 02:54:20;;;;;;;0.47;0.10;;;;;;;;;;4177493;28;20496;-37
2022/04/27 02:56:22;;;;;;;0.10;0.10;;;;;;;;;;4176299;28;20090;-37
2022/04/27 02:58:24;;;;;;;0.28;0.20;;;;;;;;;;4176410;28;20587;-37
2022/04/27 03:00:26;;;;;;;0.17;0.10;;;;;;;;;;4176679;28;20401;-37
2022/04/27 03:02:28;;;;;;;0.50;0.10;;;;;;;;;;4176321;28;20479;-38
2022/04/27 03:04:29;;;;;;;0.10;0.10;;;;;;;;;;4175914;28;20107;-37
2022/04/27 03:06:31;;;;;;;0.75;0.20;;;;;;;;;;4176438;28;20061;-37
2022/04/27 03:08:32;;;;;;;0.10;0.10;;;;;;;;;;4176275;28;20542;-37
2022/04/27 03:10:34;;;;;;;0.40;0.40;;;;;;;;;;4176161;28;20099;-37
2022/04/27 03:12:36;;;;;;;0.60;0.20;;;;;;;;;;4176177;28;20086;-37
2022/04/27 03:14:38;;;;;;;0.43;0.20;;;;;;;;;;4176552;28;20057;-37
2022/04/27 03:16:39;;;;;;;0.60;0.20;;;;;;;;;;4164956;28;20049;-37
2022/04/27 03:18:40;;;;;;;0.65;0.10;;;;;;;;;;4162882;28;20084;-37
2022/04/27 03:20:43;;;;;;;0.10;0.10;;;;;;;;;;4161817;28;20045;-37
2022/04/27 03:22:44;;;;;;;0.20;0.10;;;;;;;;;;4162953;28;20440;-37
2022/04/27 03:24:46;;;;;;;1.83;0.20;;;;;;;;;;4173028;28;20103;-37
2022/04/27 03:26:56;;;;;;;0.88;0.20;;;;;;;;;;4178386;28;20082;-38
2022/04/27 03:29:00;;;;;;;0.08;0.08;;;;;;;;;;4178049;28;20102;-37
2022/04/27 03:31:01;;;;;;;0.30;0.10;;;;;;;;;;4177982;28;20507;-37
2022/04/27 03:33:11;;;;;;;0.35;0.15;;;;;;;;;;4177927;28;20103;-37
2022/04/27 03:35:12;;;;;;;0.25;0.20;;;;;;;;;;4177990;28;20060;-37
2022/04/27 03:37:14;;;;;;;0.30;0.10;;;;;;;;;;4177951;28;20052;-37
2022/04/27 03:39:15;;;;;;;0.30;0.20;;;;;;;;;;4177847;28;20111;-37
2022/04/27 03:41:22;;;;;;;0.30;0.20;;;;;;;;;;4177879;28;20103;-37
2022/04/27 03:43:23;;;;;;;0.10;0.10;;;;;;;;;;4178179;28;20127;-37
2022/04/27 03:45:24;;;;;;;0.45;0.15;;;;;;;;;;4178211;28;20075;-37
2022/04/27 03:47:30;;;;;;;0.30;0.10;;;;;;;;;;4177788;28;20099;-37
2022/04/27 03:49:31;;;;;;;0.20;0.10;;;;;;;;;;4179026;28;20158;-37
2022/04/27 03:51:33;;;;;;;0.88;0.20;;;;;;;;;;4177992;28;20056;-37
2022/04/27 03:53:35;;;;;;;0.63;0.20;;;;;;;;;;4179201;28;20083;-37
2022/04/27 03:55:36;;;;;;;0.30;0.30;;;;;;;;;;4181231;28;20106;-37
2022/04/27 03:57:38;;;;;;;0.45;0.28;;;;;;;;;;4181143;28;20428;-37
2022/04/27 03:59:40;;;;;;;0.50;0.10;;;;;;;;;;4182846;28;20064;-37
2022/04/27 04:01:42;;;;;;;0.10;0.08;;;;;;;;;;4181155;28;20107;-37
2022/04/27 04:03:44;;;;;;;0.13;0.05;;;;;;;;;;4180722;28;20139;-37
2022/04/27 04:05:46;;;;;;;0.55;0.13;;;;;;;;;;4165157;28;20054;-37
2022/04/27 04:07:47;;;;;;;0.38;0.20;;;;;;;;;;4181061;28;20106;-37
2022/04/27 04:09:49;;;;;;;0.20;0.10;;;;;;;;;;4180893;28;20061;-38
2022/04/27 04:11:51;;;;;;;0.85;0.28;;;;;;;;;;4181217;28;20510;-37
2022/04/27 04:13:52;;;;;;;0.10;0.10;;;;;;;;;;4182256;28;20102;-37
2022/04/27 04:16:13;;;;;;;0.40;0.20;;;;;;;;;;4182138;28;20509;-37
2022/04/27 04:18:35;;;;;;;0.30;0.20;;;;;;;;;;4180547;28;20436;-37
2022/04/27 04:21:02;;;;;;;0.55;0.13;;;;;;;;;;4182771;28;20049;-37
2022/04/27 04:23:14;;;;;;;0.17;0.17;;;;;;;;;;4181969;28;20056;-37
2022/04/27 04:30:00;;;;;;;0.57;0.15;;;;;;;;;;4180927;28;20103;-37
2022/04/27 04:32:01;;;;;;;0.85;0.30;;;;;;;;;;4180708;28;20104;-37
2022/04/27 04:34:26;;;;;;;0.40;0.20;;;;;;;;;;4178333;28;20492;-37
2022/04/27 04:36:27;;;;;;;0.43;0.15;;;;;;;;;;4180800;28;20057;-37
2022/04/27 04:38:28;;;;;;;0.10;0.10;;;;;;;;;;4180440;28;20420;-37
2022/04/27 04:40:33;;;;;;;1.15;0.10;;;;;;;;;;4180950;28;20090;-37
2022/04/27 04:42:35;;;;;;;0.32;0.20;;;;;;;;;;4180863;28;20072;-37
2022/04/27 04:44:36;;;;;;;0.10;0.10;;;;;;;;;;4182150;28;20057;-37
2022/04/27 04:46:53;;;;;;;0.10;0.10;;;;;;;;;;4180586;28;20079;-37
2022/04/27 04:49:06;;;;;;;0.68;0.20;;;;;;;;;;4180137;28;20057;-37
2022/04/27 04:51:26;;;;;;;0.10;0.10;;;;;;;;;;4181833;28;20186;-37
2022/04/27 04:53:48;;;;;;;0.28;0.10;;;;;;;;;;4170137;28;20049;-38
2022/04/27 04:56:07;;;;;;;1.65;0.20;;;;;;;;;;4181653;28;20053;-37
2022/04/27 04:58:35;;;;;;;0.80;0.20;;;;;;;;;;4173155;28;20060;-37
2022/04/27 05:00:55;;;;;;;0.40;0.25;;;;;;;;;;4178778;28;20458;-37
2022/04/27 05:03:08;;;;;;;0.50;0.20;;;;;;;;;;4177901;28;20057;-38
2022/04/27 05:05:34;;;;;;;1.05;0.35;;;;;;;;;;4155397;28;20079;-37
2022/04/27 05:07:51;;;;;;;0.20;0.10;;;;;;;;;;4177920;28;20191;-37
2022/04/27 05:10:20;;;;;;;1.10;0.10;;;;;;;;;;4178410;28;20143;-37
2022/04/27 05:12:45;;;;;;;0.20;0.20;;;;;;;;;;4178108;28;20060;-37
2022/04/27 05:15:04;;;;;;;0.52;0.25;;;;;;;;;;4178129;28;20490;-37
2022/04/27 05:17:37;;;;;;;0.73;0.20;;;;;;;;;;4166869;28;20064;-37
2022/04/27 05:20:11;;;;;;;0.45;0.15;;;;;;;;;;4167088;28;20053;-37
2022/04/27 05:22:32;;;;;;;0.40;0.15;;;;;;;;;;4175574;28;20044;-37
2022/04/27 05:25:00;;;;;;;0.20;0.10;;;;;;;;;;4184217;28;20415;-37
2022/04/27 05:27:10;;;;;;;0.40;0.20;;;;;;;;;;4185890;28;20114;-37
2022/04/27 05:32:06;;;;;;;1.10;0.20;;;;;;;;;;4184044;28;20063;-37
2022/04/27 05:34:16;;;;;;;2.45;0.10;;;;;;;;;;4167199;28;20833;-37
2022/04/27 05:36:25;;;;;;;0.45;0.30;;;;;;;;;;4186269;28;20056;-37
2022/04/27 05:38:45;;;;;;;0.50;0.30;;;;;;;;;;4186458;28;20056;-37
2022/04/27 05:40:54;;;;;;;0.32;0.20;;;;;;;;;;4186143;28;20493;-37
2022/04/27 05:43:17;;;;;;;0.30;0.20;;;;;;;;;;4185037;28;20057;-37
2022/04/27 05:45:29;;;;;;;2.15;0.10;;;;;;;;;;4168652;28;20057;-37
2022/04/27 05:47:39;;;;;;;0.38;0.20;;;;;;;;;;4185734;28;20056;-37
2022/04/27 05:49:46;;;;;;;1.80;0.30;;;;;;;;;;4178034;28;20045;-37
2022/04/27 05:52:10;;;;;;;1.33;0.20;;;;;;;;;;4175932;28;20107;-38
2022/04/27 05:54:35;;;;;;;0.77;0.20;;;;;;;;;;4180519;28;20058;-37
2022/04/27 05:56:53;;;;;;;0.15;0.10;;;;;;;;;;4185116;28;20423;-37
2022/04/27 05:59:13;;;;;;;0.25;0.17;;;;;;;;;;4184993;28;20413;-37
2022/04/27 06:01:32;;;;;;;1.52;0.20;;;;;;;;;;4173694;28;20131;-37
2022/04/27 06:03:40;;;;;;;1.02;0.20;;;;;;;;;;4181329;28;20579;-37
2022/04/27 06:05:45;;;;;;;1.15;0.17;;;;;;;;;;4174203;28;20158;-37
2022/04/27 06:07:52;;;;;;;0.30;0.25;;;;;;;;;;4156379;28;20223;-38
2022/04/27 06:09:55;;;;;;;0.95;0.47;;;;;;;;;;4173924;28;20052;-37
2022/04/27 06:12:02;;;;;;;0.85;0.20;;;;;;;;;;4180912;28;20137;-37
2022/04/27 06:14:18;;;;;;;0.55;0.20;;;;;;;;;;4177113;28;20133;-37
2022/04/27 06:16:24;;;;;;;1.80;0.20;;;;;;;;;;4166367;28;20887;-37
2022/04/27 06:18:35;;;;;;;0.75;0.52;;;;;;;;;;4174524;28;20060;-37
2022/04/27 06:20:43;;;;;;;1.10;0.20;;;;;;;;;;4180242;28;20492;-37
2022/04/27 06:22:44;;;;;;;2.35;0.30;;;;;;;;;;4175179;28;20068;-38
2022/04/27 06:24:45;;;;;;;1.88;0.20;;;;;;;;;;4195506;28;20081;-37
2022/04/27 06:27:05;;;;;;;0.30;0.15;;;;;;;;;;4165698;28;20071;-37
2022/04/27 06:29:06;;;;;;;1.00;0.20;;;;;;;;;;4159389;28;20115;-38
2022/04/27 06:31:08;;;;;;;3.30;0.30;;;;;;;;;;4166532;28;20048;-38
2022/04/27 06:33:09;;;;;;;1.20;0.20;;;;;;;;;;4176434;28;20649;-39
2022/04/27 06:35:13;;;;;;;1.30;0.40;;;;;;;;;;4155464;28;20681;-37
2022/04/27 06:37:15;;;;;;;0.63;0.20;;;;;;;;;;4170008;28;20105;-38
2022/04/27 06:39:18;;;;;;;0.63;0.10;;;;;;;;;;4174743;28;20079;-38
2022/04/27 06:41:20;;;;;;;0.73;0.30;;;;;;;;;;4176173;28;20094;-38
2022/04/27 06:43:57;;;;;;;2.85;0.68;;;;;;;;;;4169085;28;20578;-39
2022/04/27 06:46:16;;;;;;;2.45;0.30;;;;;;;;;;4159716;28;20107;-38
2022/04/27 06:48:36;;;;;;;1.15;0.25;;;;;;;;;;4157129;28;20052;-38
2022/04/27 06:50:56;;;;;;;0.30;0.20;;;;;;;;;;4164715;28;20060;-38
2022/04/27 06:53:16;;;;;;;;;;;;;;;;;;4155415;28;20056;-38
2022/04/27 06:55:37;;;;;;;1.65;0.40;;;;;;;;;;4161933;28;19974;-38
2022/04/27 06:57:57;;;;;;;0.95;0.20;;;;;;;;;;4155527;28;20051;-38
2022/04/27 06:59:59;;;;;;;1.25;0.20;;;;;;;;;;4160557;28;20333;-38
2022/04/27 07:02:00;;;;;;;4.03;0.40;;;;;;;;;;4151128;28;20214;-37
2022/04/27 07:04:07;;;;;;;4.95;0.22;;;;;;;;;;4162320;28;20126;-38
2022/04/27 07:06:09;;;;;;;0.85;0.30;;;;;;;;;;4164134;28;20110;-38
2022/04/27 07:08:10;;;;;;;0.10;0.10;;;;;;;;;;4160253;28;20168;-37
2022/04/27 07:10:12;;;;;;;0.85;0.20;;;;;;;;;;4168725;28;20173;-38
2022/04/27 07:12:13;;;;;;;0.85;0.40;;;;;;;;;;4167723;28;20497;-37
2022/04/27 07:14:16;;;;;;;3.08;0.68;;;;;;;;;;4170847;28;20558;-37
2022/04/27 07:16:18;;;;;;;0.63;0.30;;;;;;;;;;4171663;28;20111;-37
2022/04/27 07:18:19;;;;;;;2.83;0.40;;;;;;;;;;4166465;28;20090;-38
2022/04/27 07:20:20;;;;;;;1.65;0.30;;;;;;;;;;4171864;28;20053;-36
2022/04/27 07:22:22;;;;;;;0.52;0.20;;;;;;;;;;4178633;28;20106;-35
2022/04/27 07:24:24;;;;;;;2.15;0.20;;;;;;;;;;4173362;28;20670;-36
2022/04/27 07:26:25;;;;;;;0.57;0.20;;;;;;;;;;4174347;28;20057;-35
2022/04/27 07:28:26;;;;;;;4.10;0.28;;;;;;;;;;4162803;28;20106;-36
2022/04/27 07:30:27;;;;;;;0.38;0.20;;;;;;;;;;4166546;28;20110;-36
2022/04/27 07:32:28;;;;;;;1.05;0.30;;;;;;;;;;4171173;28;20768;-36
2022/04/27 07:34:30;;;;;;;1.13;0.30;;;;;;;;;;4176910;28;20053;-36
2022/04/27 07:36:31;;;;;;;1.95;0.20;;;;;;;;;;4167575;28;20053;-35
2022/04/27 07:38:32;;;;;;;0.98;0.20;;;;;;;;;;4174025;28;20110;-37
2022/04/27 07:40:33;;;;;;;1.15;0.20;;;;;;;;;;4169766;28;20562;-35
2022/04/27 07:42:35;;;;;;;0.68;0.20;;;;;;;;;;4169349;28;20063;-35
2022/04/27 07:44:36;;;;;;;1.10;0.32;;;;;;;;;;4168567;28;20067;-35
2022/04/27 07:46:37;;;;;;;0.40;0.20;;;;;;;;;;4163263;28;20413;-35
2022/04/27 07:48:39;;;;;;;0.60;0.20;;;;;;;;;;4161361;28;20106;-35
2022/04/27 07:50:40;;;;;;;1.05;0.45;;;;;;;;;;4166560;28;20613;-35
2022/04/27 07:52:42;;;;;;;0.45;0.10;;;;;;;;;;4164215;28;20057;-36
2022/04/27 07:54:44;;;;;;;1.88;0.38;;;;;;;;;;4160528;28;20123;-36
2022/04/27 07:56:45;;;;;;;0.93;0.20;;;;;;;;;;4169345;28;20052;-37
2022/04/27 07:58:47;;;;;;;0.35;0.22;;;;;;;;;;4158582;28;20053;-36
2022/04/27 08:00:48;;;;;;;2.80;0.28;;;;;;;;;;4164239;28;20420;-34
2022/04/27 08:02:49;;;;;;;0.88;0.20;;;;;;;;;;4150492;28;20080;-35
2022/04/27 08:04:50;;;;;;;1.70;0.25;;;;;;;;;;4171654;28;20061;-34
2022/04/27 08:06:52;;;;;;;3.13;0.20;;;;;;;;;;4160904;28;20060;-36
2022/04/27 08:08:53;;;;;;;0.47;0.22;;;;;;;;;;4163442;28;20130;-36
2022/04/27 08:10:55;;;;;;;2.20;0.17;;;;;;;;;;4156715;28;20551;-37
2022/04/27 08:12:56;;;;;;;0.70;0.20;;;;;;;;;;4164087;28;20143;-37
2022/04/27 08:14:57;;;;;;;2.83;0.20;;;;;;;;;;4168501;28;20669;-37
2022/04/27 08:17:01;;;;;;;1.25;0.40;;;;;;;;;;4156459;28;20468;-37
2022/04/27 08:19:02;;;;;;;1.42;0.30;;;;;;;;;;4168285;28;20057;-37
2022/04/27 08:21:16;;;;;;;0.40;0.20;;;;;;;;;;4157886;28;20178;-37
2022/04/27 08:23:18;;;;;;;1.90;0.20;;;;;;;;;;4168789;28;20049;-38
2022/04/27 08:25:19;;;;;;;0.50;0.35;;;;;;;;;;4168352;28;20052;-37
2022/04/27 08:27:20;;;;;;;0.77;0.15;;;;;;;;;;4164063;28;20138;-37
2022/04/27 08:29:21;;;;;;;0.63;0.20;;;;;;;;;;4160719;28;20500;-38
2022/04/27 08:31:22;;;;;;;0.30;0.10;;;;;;;;;;4167235;28;20064;-37
2022/04/27 08:33:23;;;;;;;0.10;0.10;;;;;;;;;;4153464;28;20061;-37
2022/04/27 08:35:24;;;;;;;0.30;0.20;;;;;;;;;;4161214;28;20057;-36
2022/04/27 08:37:25;;;;;;;1.02;0.15;;;;;;;;;;4167525;28;20117;-37
2022/04/27 08:39:27;;;;;;;0.30;0.20;;;;;;;;;;4160080;28;20557;-36
2022/04/27 08:41:28;;;;;;;0.55;0.20;;;;;;;;;;4167842;28;20049;-35
2022/04/27 08:43:30;;;;;;;0.30;0.10;;;;;;;;;;4174695;28;20059;-37
2022/04/27 08:45:32;;;;;;;0.43;0.10;;;;;;;;;;4172091;28;20056;-36
2022/04/27 08:47:34;;;;;;;0.82;0.20;;;;;;;;;;4165024;28;20057;-37
2022/04/27 08:49:35;;;;;;;1.98;0.20;;;;;;;;;;4165269;28;20052;-36
2022/04/27 08:51:38;;;;;;;0.20;0.10;;;;;;;;;;4162156;28;20735;-36
2022/04/27 08:53:39;;;;;;;0.70;0.10;;;;;;;;;;4170962;28;20083;-37
2022/04/27 08:55:41;;;;;;;0.45;0.25;;;;;;;;;;4172988;28;20512;-36
2022/04/27 08:57:45;;;;;;;0.55;0.32;;;;;;;;;;4169747;28;20060;-36
2022/04/27 08:59:47;;;;;;;2.00;0.13;;;;;;;;;;4169933;28;20036;-36
2022/04/27 09:01:48;;;;;;;0.75;0.20;;;;;;;;;;4175826;28;20048;-36
2022/04/27 09:03:50;;;;;;;2.65;0.30;;;;;;;;;;4172699;28;20090;-37
2022/04/27 09:05:59;;;;;;;0.50;0.25;;;;;;;;;;4167012;28;20194;-36
2022/04/27 09:08:00;;;;;;;1.10;0.20;;;;;;;;;;4167016;28;20604;-36
2022/04/27 09:10:02;;;;;;;0.17;0.10;;;;;;;;;;4174135;28;20194;-36
2022/04/27 09:12:08;;;;;;;0.82;0.20;;;;;;;;;;4169423;28;20061;-36
2022/04/27 09:14:09;;;;;;;0.32;0.20;;;;;;;;;;4162070;28;20118;-37
2022/04/27 09:16:11;;;;;;;0.20;0.20;;;;;;;;;;4173055;28;20539;-36
2022/04/27 09:20:50;;;;;;;1.27;0.20;;;;;;;;;;4171260;28;20110;-36
2022/04/27 09:22:52;;;;;;;0.20;0.13;;;;;;;;;;4169953;28;20056;-36
2022/04/27 09:24:54;;;;;;;0.10;0.10;;;;;;;;;;4171023;28;20138;-36
2022/04/27 09:27:11;;;;;;;0.68;0.30;;;;;;;;;;4171462;28;20126;-36
2022/04/27 09:29:25;;;;;;;2.78;0.22;;;;;;;;;;4166436;28;20052;-36
2022/04/27 09:31:27;;;;;;;0.50;0.20;;;;;;;;;;4164893;28;20142;-36
2022/04/27 09:33:33;;;;;;;0.28;0.17;;;;;;;;;;4166981;28;20134;-36
2022/04/27 09:35:36;;;;;;;0.85;0.22;;;;;;;;;;4166185;28;20057;-36
2022/04/27 09:37:41;;;;;;;1.73;0.20;;;;;;;;;;4164845;28;20056;-36
2022/04/27 09:39:58;;;;;;;3.70;0.30;;;;;;;;;;4163248;28;20099;-36
2022/04/27 09:42:04;;;;;;;0.50;0.20;;;;;;;;;;4168066;28;20093;-37
2022/04/27 09:44:05;;;;;;;0.35;0.15;;;;;;;;;;4164742;28;20071;-36
2022/04/27 09:46:17;;;;;;;0.35;0.20;;;;;;;;;;4164974;28;20389;-36
2022/04/27 09:48:19;;;;;;;0.32;0.10;;;;;;;;;;4162455;28;20052;-36
2022/04/27 09:50:20;;;;;;;0.13;0.10;;;;;;;;;;4168838;28;20851;-36
2022/04/27 09:52:23;;;;;;;0.30;0.10;;;;;;;;;;4165581;28;20547;-35
2022/04/27 09:54:28;;;;;;;0.95;0.10;;;;;;;;;;4167292;28;20052;-36
2022/04/27 09:56:39;;;;;;;0.52;0.00;;;;;;;;;;4165375;28;20049;-36
2022/04/27 09:58:44;;;;;;;2.15;0.30;;;;;;;;;;4164344;28;20057;-36
2022/04/27 10:00:47;;;;;;;0.10;0.10;;;;;;;;;;4168657;28;20079;-36
2022/04/27 10:02:49;;;;;;;0.40;0.20;;;;;;;;;;4172925;28;20064;-36
2022/04/27 10:04:51;;;;;;;0.20;0.10;;;;;;;;;;4164643;28;20108;-36
2022/04/27 10:06:52;;;;;;;0.25;0.10;;;;;;;;;;4167156;28;20056;-38
2022/04/27 10:08:53;;;;;;;0.10;0.10;;;;;;;;;;4175589;28;20491;-38
2022/04/27 10:10:54;;;;;;;0.20;0.20;;;;;;;;;;4166261;28;20045;-38
2022/04/27 10:12:56;;;;;;;0.40;0.10;;;;;;;;;;4172209;28;20061;-35
2022/04/27 10:14:59;;;;;;;0.20;0.17;;;;;;;;;;4163084;28;20049;-35
2022/04/27 10:17:00;;;;;;;0.35;0.20;;;;;;;;;;4167161;28;20343;-38
2022/04/27 10:19:02;;;;;;;0.40;0.10;;;;;;;;;;4166384;28;20679;-37
2022/04/27 10:21:04;;;;;;;0.10;0.10;;;;;;;;;;4167999;28;20045;-36
2022/04/27 10:23:27;;;;;;;1.48;0.10;;;;;;;;;;4172585;28;20563;-37
2022/04/27 10:25:28;;;;;;;0.30;0.10;;;;;;;;;;4162702;28;20517;-35
2022/04/27 10:27:33;;;;;;;0.20;0.10;;;;;;;;;;4164766;28;20053;-37
2022/04/27 10:29:34;;;;;;;0.30;0.20;;;;;;;;;;4172780;28;20386;-35
2022/04/27 10:31:42;;;;;;;0.80;0.13;;;;;;;;;;4169091;28;20348;-35
2022/04/27 10:33:51;;;;;;;0.38;0.10;;;;;;;;;;4150146;28;20083;-37
2022/04/27 10:35:52;;;;;;;0.10;0.10;;;;;;;;;;4155236;28;20102;-37
2022/04/27 10:37:57;;;;;;;0.57;0.10;;;;;;;;;;4155858;28;20052;-37
2022/04/27 10:40:29;;;;;;;0.80;0.00;;;;;;;;;;4155927;28;20061;-38
2022/04/27 10:42:30;;;;;;;0.77;0.28;;;;;;;;;;4154203;28;20442;-37
2022/04/27 10:44:58;;;;;;;0.17;0.10;;;;;;;;;;4152273;28;20277;-37
2022/04/27 10:47:18;;;;;;;0.52;0.17;;;;;;;;;;4157296;28;20483;-37
2022/04/27 10:49:24;;;;;;;0.68;0.10;;;;;;;;;;4176213;28;20511;-35
2022/04/27 10:51:25;;;;;;;0.75;0.10;;;;;;;;;;4156400;28;20068;-43
2022/04/27 10:53:28;;;;;;;0.60;0.13;;;;;;;;;;4153710;28;20061;-36
2022/04/27 10:55:38;;;;;;;0.75;0.20;;;;;;;;;;4151874;28;20056;-37
2022/04/27 10:57:41;;;;;;;0.57;0.28;;;;;;;;;;4153167;28;20114;-36
2022/04/27 10:59:50;;;;;;;3.08;0.10;;;;;;;;;;4153485;28;22198;-38
2022/04/27 11:01:52;;;;;;;0.27;0.10;;;;;;;;;;4157626;28;20564;-36
2022/04/27 11:04:14;;;;;;;0.20;0.10;;;;;;;;;;4163934;28;20448;-36
2022/04/27 11:06:16;;;;;;;0.50;0.20;;;;;;;;;;4161059;28;20087;-36
2022/04/27 11:08:26;;;;;;;0.10;0.10;;;;;;;;;;4167880;28;20146;-39
2022/04/27 11:10:27;;;;;;;0.10;0.10;;;;;;;;;;4156324;28;20053;-37
2022/04/27 11:12:31;;;;;;;0.75;0.25;;;;;;;;;;4162552;28;20057;-36
2022/04/27 11:14:36;;;;;;;2.15;0.38;;;;;;;;;;4172098;28;20106;-36
2022/04/27 11:16:47;;;;;;;2.08;0.20;;;;;;;;;;4148785;28;20061;-36
2022/04/27 11:18:55;;;;;;;0.45;0.20;;;;;;;;;;4169554;28;20060;-36
2022/04/27 11:21:01;;;;;;;2.03;0.10;;;;;;;;;;4165595;28;20060;-36
2022/04/27 11:23:07;;;;;;;1.65;0.10;;;;;;;;;;4172825;28;20056;-36
2022/04/27 11:25:09;;;;;;;1.15;0.30;;;;;;;;;;4168712;28;20182;-36
2022/04/27 11:27:10;;;;;;;0.30;0.10;;;;;;;;;;4168699;28;20487;-37
2022/04/27 11:29:13;;;;;;;0.00;0.00;;;;;;;;;;4169110;28;20079;-36
2022/04/27 11:31:16;;;;;;;0.35;0.17;;;;;;;;;;4172364;28;20143;-36
2022/04/27 11:33:17;;;;;;;0.30;0.10;;;;;;;;;;4163891;28;20118;-37
2022/04/27 11:35:22;;;;;;;0.10;0.10;;;;;;;;;;4165115;28;20318;-38
2022/04/27 11:37:24;;;;;;;0.98;0.28;;;;;;;;;;4163211;28;20060;-36
2022/04/27 11:39:25;;;;;;;0.65;0.20;;;;;;;;;;4162072;28;20833;-35
2022/04/27 11:41:27;;;;;;;1.13;0.25;;;;;;;;;;4158827;28;20528;-36
2022/04/27 11:43:34;;;;;;;0.28;0.20;;;;;;;;;;4160916;28;20060;-36
2022/04/27 11:45:35;;;;;;;0.30;0.13;;;;;;;;;;4159594;28;20076;-36
2022/04/27 11:47:37;;;;;;;0.40;0.10;;;;;;;;;;4161625;28;20068;-36
2022/04/27 11:49:39;;;;;;;0.28;0.13;;;;;;;;;;4163407;28;20127;-36
2022/04/27 11:51:48;;;;;;;0.20;0.10;;;;;;;;;;4155518;28;20492;-36
2022/04/27 11:53:49;;;;;;;2.17;0.10;;;;;;;;;;4155437;28;20060;-36
2022/04/27 11:55:51;;;;;;;0.47;0.08;;;;;;;;;;4157780;28;20377;-35
2022/04/27 11:57:52;;;;;;;2.63;0.20;;;;;;;;;;4156806;28;20057;-36
2022/04/27 11:59:57;;;;;;;0.30;0.10;;;;;;;;;;4158927;28;20780;-35
2022/04/27 12:01:59;;;;;;;0.30;0.10;;;;;;;;;;4164668;28;20884;-38
2022/04/27 12:04:00;;;;;;;1.70;0.10;;;;;;;;;;4164145;28;20053;-36
2022/04/27 12:06:01;;;;;;;0.57;0.10;;;;;;;;;;4162104;28;21397;-38
2022/04/27 12:08:09;;;;;;;0.98;0.20;;;;;;;;;;4164724;28;20718;-40
2022/04/27 12:10:10;;;;;;;0.80;0.10;;;;;;;;;;4169532;28;20859;-37
2022/04/27 12:12:11;;;;;;;0.25;0.15;;;;;;;;;;4168502;28;20052;-38
2022/04/27 12:14:16;;;;;;;1.85;0.20;;;;;;;;;;4162894;28;20468;-36
2022/04/27 12:16:17;;;;;;;0.43;0.20;;;;;;;;;;4159682;28;20632;-36
2022/04/27 12:18:25;;;;;;;1.25;0.20;;;;;;;;;;4146313;28;21415;-36
2022/04/27 12:20:39;;;;;;;0.20;0.10;;;;;;;;;;4164630;28;20057;-37
2022/04/27 12:22:51;;;;;;;1.17;0.15;;;;;;;;;;4176639;28;20080;-36
2022/04/27 12:25:00;;;;;;;0.32;0.10;;;;;;;;;;4169137;28;20056;-37
2022/04/27 12:27:01;;;;;;;0.30;0.05;;;;;;;;;;4168511;28;20225;-38
2022/04/27 12:29:07;;;;;;;0.10;0.10;;;;;;;;;;4172738;28;20494;-37
2022/04/27 12:31:09;;;;;;;0.32;0.20;;;;;;;;;;4171401;28;20044;-37
2022/04/27 12:33:11;;;;;;;0.22;0.10;;;;;;;;;;4172226;28;20100;-38
2022/04/27 12:37:34;;;;;;;0.20;0.10;;;;;;;;;;4177589;28;20449;-37
2022/04/27 12:39:39;;;;;;;0.20;0.10;;;;;;;;;;4170116;28;20646;-37
2022/04/27 12:41:43;;;;;;;0.80;0.17;;;;;;;;;;4160966;28;20045;-37
2022/04/27 12:43:48;;;;;;;0.43;0.20;;;;;;;;;;4161130;28;20103;-36
2022/04/27 12:46:03;;;;;;;0.55;0.15;;;;;;;;;;4175445;28;20109;-37
2022/04/27 12:48:05;;;;;;;0.85;0.20;;;;;;;;;;4168228;28;20048;-37